createdAt,value
2023-01-31T00:01:23.569Z,15.77
2023-01-31T00:03:55.788Z,14.02
2023-01-31T00:06:28.931Z,18.00
2023-01-31T00:09:00.089Z,26.27
2023-01-31T00:11:31.765Z,18.02
2023-01-31T00:14:03.323Z,21.85
2023-01-31T00:16:34.924Z,59.95
2023-01-31T00:19:04.905Z,19.50
2023-01-31T00:21:34.884Z,23.20
2023-01-31T00:26:37.353Z,14.73
2023-01-31T00:29:08.239Z,20.63
2023-01-31T00:31:40.217Z,17.75
2023-01-31T00:34:10.168Z,17.35
2023-01-31T00:36:39.679Z,15.57
2023-01-31T00:39:12.956Z,14.27
2023-01-31T00:41:41.988Z,11.75
2023-01-31T00:44:11.448Z,13.35
2023-01-31T00:46:42.302Z,25.25
2023-01-31T00:49:11.774Z,11.27
2023-01-31T00:51:40.652Z,25.73
2023-01-31T00:54:09.950Z,22.60
2023-01-31T00:56:39.118Z,15.93
2023-01-31T00:59:08.712Z,24.13
2023-01-31T01:01:38.606Z,20.48
2023-01-31T01:04:09.653Z,15.18
2023-01-31T01:06:42.075Z,11.65
2023-01-31T01:09:14.433Z,18.13
2023-01-31T01:11:43.476Z,24.67
2023-01-31T01:14:12.816Z,20.60
2023-01-31T01:16:42.297Z,23.38
2023-01-31T01:19:17.709Z,18.05
2023-01-31T01:21:51.147Z,15.50
2023-01-31T01:24:21.188Z,18.90
2023-01-31T01:26:50.286Z,13.77
2023-01-31T01:29:19.560Z,11.20
2023-01-31T01:31:49.022Z,14.52
2023-01-31T01:34:20.417Z,11.57
2023-01-31T01:36:50.126Z,11.85
2023-01-31T01:39:19.885Z,9.63
2023-01-31T01:41:51.407Z,10.40
2023-01-31T01:44:47.712Z,8.75
2023-01-31T01:47:35.047Z,8.20
2023-01-31T01:50:13.499Z,8.30
2023-01-31T01:52:47.593Z,10.13
2023-01-31T01:55:23.020Z,7.15
2023-01-31T01:57:57.056Z,7.88
2023-01-31T02:00:30.023Z,8.15
2023-01-31T02:03:01.562Z,9.20
2023-01-31T02:05:36.418Z,12.75
2023-01-31T02:08:06.158Z,9.15
2023-01-31T02:10:41.762Z,6.72
2023-01-31T02:13:12.519Z,6.28
2023-01-31T02:15:42.192Z,7.30
2023-01-31T02:18:12.073Z,13.00
2023-01-31T02:21:13.039Z,8.25
2023-01-31T02:24:07.794Z,8.32
2023-01-31T02:27:07.194Z,7.05
2023-01-31T02:30:03.004Z,6.85
2023-01-31T02:32:56.562Z,9.77
2023-01-31T02:35:39.174Z,9.55
2023-01-31T02:38:21.107Z,6.20
2023-01-31T02:40:57.914Z,5.82
2023-01-31T02:43:59.647Z,8.00
2023-01-31T02:46:36.969Z,3.97
2023-01-31T02:49:34.776Z,8.40
2023-01-31T02:52:21.770Z,6.38
2023-01-31T02:55:24.228Z,8.13
2023-01-31T02:57:56.624Z,6.90
2023-01-31T03:00:27.767Z,7.03
2023-01-31T03:02:57.575Z,8.40
2023-01-31T03:05:28.822Z,5.40
2023-01-31T03:08:02.058Z,10.10
2023-01-31T03:11:00.754Z,9.93
2023-01-31T03:13:46.282Z,6.93
2023-01-31T03:16:42.864Z,4.65
2023-01-31T03:19:18.511Z,3.05
2023-01-31T03:21:54.382Z,8.43
2023-01-31T03:24:26.222Z,10.45
2023-01-31T03:26:59.854Z,3.00
2023-01-31T03:29:31.066Z,5.55
2023-01-31T03:32:06.396Z,10.02
2023-01-31T03:34:36.208Z,8.00
2023-01-31T03:37:17.894Z,11.27
2023-01-31T03:39:54.840Z,8.40
2023-01-31T03:42:32.592Z,6.10
2023-01-31T03:45:06.066Z,5.35
2023-01-31T03:47:40.928Z,11.13
2023-01-31T03:50:17.480Z,6.35
2023-01-31T03:52:54.038Z,4.57
2023-01-31T03:55:31.598Z,5.85
2023-01-31T03:58:04.507Z,7.85
2023-01-31T04:00:40.171Z,6.07
2023-01-31T04:03:15.463Z,8.13
2023-01-31T04:05:46.531Z,4.55
2023-01-31T04:08:18.155Z,8.75
2023-01-31T04:10:55.812Z,9.98
2023-01-31T04:13:25.528Z,8.70
2023-01-31T04:15:55.950Z,7.75
2023-01-31T04:18:25.271Z,4.32
2023-01-31T04:20:54.219Z,8.23
2023-01-31T04:23:26.612Z,6.72
2023-01-31T04:25:56.250Z,4.50
2023-01-31T04:28:25.658Z,8.32
2023-01-31T04:30:55.319Z,8.48
2023-01-31T04:33:25.641Z,9.93
2023-01-31T04:35:54.569Z,6.85
2023-01-31T04:38:25.185Z,6.50
2023-01-31T04:40:54.295Z,5.82
2023-01-31T04:43:23.517Z,7.37
2023-01-31T04:45:52.582Z,3.47
2023-01-31T04:48:21.864Z,5.63
2023-01-31T04:50:50.812Z,4.93
2023-01-31T04:53:22.195Z,10.98
2023-01-31T04:55:55.826Z,3.97
2023-01-31T04:58:25.444Z,4.40
2023-01-31T05:00:55.779Z,6.15
2023-01-31T05:03:25.130Z,5.78
2023-01-31T05:05:54.127Z,4.25
2023-01-31T05:08:23.380Z,3.90
2023-01-31T05:10:59.180Z,5.80
2023-01-31T05:13:30.113Z,3.42
2023-01-31T05:15:59.112Z,5.75
2023-01-31T05:18:28.331Z,5.72
2023-01-31T05:20:57.205Z,4.55
2023-01-31T05:23:26.483Z,6.47
2023-01-31T05:25:57.261Z,6.43
2023-01-31T05:28:27.164Z,7.15
2023-01-31T05:31:03.104Z,6.88
2023-01-31T05:33:33.613Z,4.57
2023-01-31T05:36:03.567Z,7.82
2023-01-31T05:38:33.469Z,6.18
2023-01-31T05:41:03.940Z,5.70
2023-01-31T05:43:34.949Z,11.27
2023-01-31T05:46:05.471Z,12.15
2023-01-31T05:48:34.704Z,11.67
2023-01-31T05:51:03.635Z,9.90
2023-01-31T05:53:32.831Z,8.80
2023-01-31T05:56:03.140Z,8.52
2023-01-31T05:58:32.472Z,17.83
2023-01-31T06:01:01.451Z,10.32
2023-01-31T06:03:31.093Z,10.73
2023-01-31T06:06:00.481Z,13.90
2023-01-31T06:08:29.898Z,11.27
2023-01-31T06:10:58.944Z,9.98
2023-01-31T06:13:29.793Z,6.83
2023-01-31T06:15:59.313Z,11.05
2023-01-31T06:18:30.829Z,7.82
2023-01-31T06:20:59.917Z,12.18
2023-01-31T06:23:29.651Z,8.20
2023-01-31T06:25:59.487Z,22.73
2023-01-31T06:28:30.812Z,46.72
2023-01-31T06:30:59.826Z,26.23
2023-01-31T06:33:42.745Z,23.52
2023-01-31T06:36:18.078Z,66.07
2023-01-31T06:38:51.634Z,146.07
2023-01-31T06:41:21.511Z,49.28
2023-01-31T06:43:52.677Z,32.28
2023-01-31T06:46:22.131Z,24.98
2023-01-31T06:48:51.390Z,36.38
2023-01-31T06:51:20.297Z,20.25
2023-01-31T06:53:51.324Z,37.60
2023-01-31T06:56:20.606Z,27.42
2023-01-31T06:58:51.363Z,14.07
2023-01-31T07:01:22.483Z,40.78
2023-01-31T07:03:51.987Z,40.50
2023-01-31T07:06:21.626Z,24.52
2023-01-31T07:08:51.517Z,23.88
2023-01-31T07:11:20.760Z,18.40
2023-01-31T07:13:51.885Z,12.27
2023-01-31T07:16:22.857Z,22.73
2023-01-31T07:18:54.328Z,25.23
2023-01-31T07:21:24.238Z,22.15
2023-01-31T07:23:53.481Z,35.80
2023-01-31T07:26:22.571Z,18.92
2023-01-31T07:28:54.106Z,26.10
2023-01-31T07:31:23.616Z,22.20
2023-01-31T07:36:26.660Z,10.05
2023-01-31T07:38:57.450Z,12.20
2023-01-31T07:41:27.000Z,14.40
2023-01-31T07:43:59.601Z,20.80
2023-01-31T07:46:28.941Z,16.02
2023-01-31T07:48:58.500Z,13.50
2023-01-31T07:51:27.631Z,19.73
2023-01-31T07:53:58.085Z,10.87
2023-01-31T07:56:27.022Z,30.65
2023-01-31T07:58:57.895Z,37.00
2023-01-31T08:01:47.710Z,11.55
2023-01-31T08:04:23.394Z,10.38
2023-01-31T08:06:56.428Z,12.25
2023-01-31T08:09:26.242Z,19.85
2023-01-31T08:11:55.197Z,12.30
2023-01-31T08:14:28.380Z,14.70
2023-01-31T08:16:57.658Z,30.63
2023-01-31T08:19:27.577Z,26.67
2023-01-31T08:21:56.617Z,8.77
2023-01-31T08:24:26.207Z,28.23
2023-01-31T08:26:55.626Z,25.30
2023-01-31T08:29:27.187Z,10.27
2023-01-31T08:31:56.679Z,12.23
2023-01-31T08:34:28.238Z,20.20
2023-01-31T08:36:57.574Z,27.65
2023-01-31T08:39:30.452Z,29.95
2023-01-31T08:41:59.710Z,14.00
2023-01-31T08:44:31.361Z,14.25
2023-01-31T08:47:02.421Z,39.28
2023-01-31T08:49:33.801Z,32.28
2023-01-31T08:52:03.003Z,38.83
2023-01-31T08:54:32.538Z,15.13
2023-01-31T08:57:01.634Z,26.13
2023-01-31T08:59:32.755Z,83.13
2023-01-31T09:02:02.164Z,18.35
2023-01-31T09:04:32.390Z,87.95
2023-01-31T09:07:01.572Z,25.27
2023-01-31T09:09:31.519Z,20.80
2023-01-31T09:12:00.547Z,27.95
2023-01-31T09:14:31.446Z,18.33
2023-01-31T09:17:00.968Z,24.92
2023-01-31T09:19:30.732Z,19.50
2023-01-31T09:22:00.100Z,22.55
2023-01-31T09:24:29.999Z,36.77
2023-01-31T09:26:59.321Z,11.20
2023-01-31T09:29:30.201Z,15.07
2023-01-31T09:32:01.201Z,27.58
2023-01-31T09:34:30.948Z,16.05
2023-01-31T09:37:00.321Z,12.23
2023-01-31T09:39:29.766Z,22.85
2023-01-31T09:42:02.941Z,27.23
2023-01-31T09:44:38.518Z,13.52
2023-01-31T09:47:15.724Z,8.05
2023-01-31T09:49:49.961Z,13.10
2023-01-31T09:52:19.586Z,8.63
2023-01-31T09:54:49.043Z,10.05
2023-01-31T09:57:29.458Z,9.05
2023-01-31T10:00:09.591Z,13.07
2023-01-31T10:03:18.572Z,13.63
2023-01-31T10:05:53.924Z,7.53
2023-01-31T10:08:41.246Z,7.70
2023-01-31T10:11:16.575Z,6.97
2023-01-31T10:13:50.898Z,6.57
2023-01-31T10:16:26.715Z,7.43
2023-01-31T10:19:03.003Z,5.50
2023-01-31T10:21:39.686Z,7.90
2023-01-31T10:24:17.367Z,8.57
2023-01-31T10:26:50.028Z,4.80
2023-01-31T10:29:29.667Z,8.88
2023-01-31T10:32:04.801Z,6.35
2023-01-31T10:34:41.839Z,9.30
2023-01-31T10:37:19.199Z,8.40
2023-01-31T10:39:54.270Z,6.78
2023-01-31T10:42:31.701Z,7.60
2023-01-31T10:45:07.726Z,8.80
2023-01-31T10:47:39.314Z,8.25
2023-01-31T10:50:18.240Z,9.07
2023-01-31T10:52:59.231Z,7.28
2023-01-31T10:58:17.171Z,7.40
2023-01-31T11:00:47.381Z,7.93
2023-01-31T11:03:17.345Z,7.15
2023-01-31T11:05:51.488Z,8.05
2023-01-31T11:08:30.679Z,4.07
2023-01-31T11:11:06.100Z,7.10
2023-01-31T11:13:35.655Z,12.07
2023-01-31T11:16:08.172Z,8.95
2023-01-31T11:18:45.188Z,6.00
2023-01-31T11:21:23.388Z,11.82
2023-01-31T11:23:54.122Z,8.88
2023-01-31T11:26:30.253Z,6.90
2023-01-31T11:29:00.356Z,8.80
2023-01-31T11:31:36.163Z,6.95
2023-01-31T11:34:18.979Z,7.35
2023-01-31T11:36:50.445Z,8.93
2023-01-31T11:39:31.418Z,6.80
2023-01-31T11:42:07.962Z,6.38
2023-01-31T11:44:37.182Z,10.82
2023-01-31T11:47:13.096Z,9.40
2023-01-31T11:49:44.244Z,11.38
2023-01-31T11:52:17.782Z,13.68
2023-01-31T11:54:51.589Z,10.13
2023-01-31T11:57:26.599Z,7.93
2023-01-31T11:59:58.671Z,9.63
2023-01-31T12:02:37.034Z,7.43
2023-01-31T12:05:15.144Z,7.60
2023-01-31T12:07:48.141Z,5.00
2023-01-31T12:10:32.920Z,3.67
2023-01-31T12:13:17.814Z,5.63
2023-01-31T12:15:55.540Z,9.18
2023-01-31T12:19:00.739Z,5.15
2023-01-31T12:21:45.783Z,8.15
2023-01-31T12:24:28.058Z,13.48
2023-01-31T12:27:02.667Z,8.73
2023-01-31T12:29:54.328Z,9.05
2023-01-31T12:32:45.173Z,4.88
2023-01-31T12:35:37.941Z,7.15
2023-01-31T12:38:21.239Z,6.93
2023-01-31T12:41:04.970Z,8.27
2023-01-31T12:43:54.520Z,7.05
2023-01-31T12:46:27.089Z,8.77
2023-01-31T12:49:26.621Z,7.50
2023-01-31T12:52:05.064Z,9.95
2023-01-31T12:54:52.139Z,9.27
2023-01-31T12:57:44.776Z,7.80
2023-01-31T13:00:26.544Z,8.52
2023-01-31T13:03:28.001Z,5.25
2023-01-31T13:06:01.739Z,5.43
2023-01-31T13:08:32.971Z,7.25
2023-01-31T13:11:07.503Z,9.98
2023-01-31T13:13:45.975Z,7.50
2023-01-31T13:16:20.255Z,10.20
2023-01-31T13:18:53.611Z,7.43
2023-01-31T13:21:27.246Z,6.68
2023-01-31T13:24:01.241Z,7.80
2023-01-31T13:26:33.579Z,8.07
2023-01-31T13:29:11.779Z,10.27
2023-01-31T13:31:47.422Z,6.43
2023-01-31T13:34:22.762Z,6.18
2023-01-31T13:36:57.644Z,6.22
2023-01-31T13:39:31.659Z,8.10
2023-01-31T13:42:01.184Z,2.97
2023-01-31T13:44:33.121Z,6.03
2023-01-31T13:47:09.449Z,5.45
2023-01-31T13:49:44.536Z,4.00
2023-01-31T13:52:20.610Z,7.53
2023-01-31T13:54:53.373Z,10.95
2023-01-31T13:57:26.397Z,7.28
2023-01-31T14:00:10.066Z,8.45
2023-01-31T14:02:39.658Z,5.35
2023-01-31T14:05:51.086Z,9.87
2023-01-31T14:08:37.043Z,9.18
2023-01-31T14:11:23.211Z,7.43
2023-01-31T14:14:19.033Z,6.78
2023-01-31T14:16:53.070Z,7.32
2023-01-31T14:20:05.813Z,7.30
2023-01-31T14:22:36.464Z,6.43
2023-01-31T14:25:16.023Z,8.68
2023-01-31T14:28:02.604Z,9.48
2023-01-31T14:30:40.339Z,10.55
2023-01-31T14:33:24.519Z,13.73
2023-01-31T14:36:13.257Z,7.82
2023-01-31T14:39:12.054Z,10.02
2023-01-31T14:42:04.740Z,4.95
2023-01-31T14:44:47.379Z,9.27
2023-01-31T14:47:31.837Z,8.80
2023-01-31T14:50:37.596Z,9.70
2023-01-31T14:53:21.284Z,12.23
2023-01-31T14:56:05.678Z,8.60
2023-01-31T14:58:37.071Z,5.93
2023-01-31T15:03:49.145Z,6.45
2023-01-31T15:06:28.101Z,11.02
2023-01-31T15:09:28.077Z,9.00
2023-01-31T15:11:57.936Z,10.93
2023-01-31T15:14:36.386Z,9.02
2023-01-31T15:17:27.605Z,15.35
2023-01-31T15:20:15.542Z,12.45
2023-01-31T15:22:46.881Z,11.40
2023-01-31T15:25:32.379Z,8.02
2023-01-31T15:28:03.944Z,8.95
2023-01-31T15:30:36.876Z,8.38
2023-01-31T15:33:11.410Z,8.00
2023-01-31T15:35:51.518Z,8.35
2023-01-31T15:38:32.550Z,10.80
2023-01-31T15:41:22.824Z,8.63
2023-01-31T15:43:55.614Z,7.85
2023-01-31T15:46:28.464Z,11.70
2023-01-31T15:48:58.767Z,9.98
2023-01-31T15:51:29.653Z,6.15
2023-01-31T15:54:09.628Z,11.30
2023-01-31T15:59:16.553Z,9.63
2023-01-31T16:01:50.582Z,14.23
2023-01-31T16:04:20.181Z,12.57
2023-01-31T16:06:49.676Z,10.63
2023-01-31T16:09:28.464Z,20.50
2023-01-31T16:11:59.712Z,8.38
2023-01-31T16:14:30.077Z,7.38
2023-01-31T16:17:00.725Z,11.15
2023-01-31T16:19:36.063Z,8.32
2023-01-31T16:22:22.386Z,14.63
2023-01-31T16:25:05.942Z,6.20
2023-01-31T16:27:39.188Z,11.02
2023-01-31T16:30:16.984Z,7.93
2023-01-31T16:32:51.413Z,11.10
2023-01-31T16:35:25.123Z,8.52
2023-01-31T16:38:04.002Z,10.90
2023-01-31T16:40:38.307Z,7.18
2023-01-31T16:43:19.828Z,8.85
2023-01-31T16:45:54.007Z,5.97
2023-01-31T16:48:27.233Z,5.93
2023-01-31T16:50:59.760Z,6.72
2023-01-31T16:53:32.739Z,7.53
2023-01-31T16:56:23.854Z,7.70
2023-01-31T16:58:56.413Z,7.72
2023-01-31T17:01:28.961Z,6.68
2023-01-31T17:04:15.780Z,7.95
2023-01-31T17:06:49.241Z,7.95
2023-01-31T17:09:23.023Z,4.90
2023-01-31T17:11:56.009Z,6.68
2023-01-31T17:14:26.024Z,5.80
2023-01-31T17:16:56.579Z,6.97
2023-01-31T17:19:26.269Z,6.43
2023-01-31T17:21:55.405Z,6.53
2023-01-31T17:24:26.471Z,3.88
2023-01-31T17:26:57.062Z,5.28
2023-01-31T17:29:27.472Z,7.80
2023-01-31T17:31:56.862Z,9.98
2023-01-31T17:34:26.126Z,7.90
2023-01-31T17:36:55.242Z,6.90
2023-01-31T17:39:24.514Z,8.50
2023-01-31T17:41:53.883Z,6.55
2023-01-31T17:44:24.839Z,5.20
2023-01-31T17:46:53.921Z,5.75
2023-01-31T17:49:23.435Z,4.25
2023-01-31T17:51:54.333Z,5.63
2023-01-31T17:54:26.652Z,5.38
2023-01-31T17:56:58.170Z,4.18
2023-01-31T17:59:30.019Z,4.60
2023-01-31T18:02:03.271Z,5.32
2023-01-31T18:04:33.907Z,4.32
2023-01-31T18:07:04.694Z,8.88
2023-01-31T18:09:34.329Z,10.65
2023-01-31T18:12:03.711Z,5.60
2023-01-31T18:14:34.875Z,5.55
2023-01-31T18:17:04.052Z,10.25
2023-01-31T18:19:34.782Z,8.80
2023-01-31T18:22:03.923Z,7.32
2023-01-31T18:24:33.881Z,5.95
2023-01-31T18:27:03.293Z,6.93
2023-01-31T18:29:34.818Z,4.18
2023-01-31T18:32:06.342Z,6.60
2023-01-31T18:34:37.434Z,3.58
2023-01-31T18:39:43.481Z,3.92
2023-01-31T18:42:13.147Z,3.70
2023-01-31T18:44:46.932Z,2.83
2023-01-31T18:47:17.909Z,4.25
2023-01-31T18:49:50.587Z,7.50
2023-01-31T18:52:21.223Z,3.60
2023-01-31T18:54:54.404Z,8.23
2023-01-31T18:57:24.095Z,3.80
2023-01-31T18:59:55.752Z,3.55
2023-01-31T19:02:28.779Z,3.78
2023-01-31T19:04:59.420Z,6.18
2023-01-31T19:07:29.160Z,4.32
2023-01-31T19:09:58.728Z,3.40
2023-01-31T19:12:28.188Z,2.45
2023-01-31T19:15:00.904Z,2.97
2023-01-31T19:17:30.409Z,3.03
2023-01-31T19:19:59.915Z,4.68
2023-01-31T19:22:30.044Z,3.67
2023-01-31T19:25:00.530Z,3.95
2023-01-31T19:27:29.658Z,2.93
2023-01-31T19:30:04.033Z,3.05
2023-01-31T19:32:35.147Z,1.92
2023-01-31T19:35:07.202Z,3.53
2023-01-31T19:37:36.777Z,2.22
2023-01-31T19:40:06.752Z,1.67
2023-01-31T19:42:41.004Z,2.30
2023-01-31T19:45:21.924Z,2.00
2023-01-31T19:47:51.924Z,2.78
2023-01-31T19:50:21.305Z,2.70
2023-01-31T19:52:53.399Z,2.20
2023-01-31T19:55:28.320Z,2.08
2023-01-31T19:58:00.084Z,3.95
2023-01-31T20:00:31.397Z,3.78
2023-01-31T20:03:00.778Z,3.45
2023-01-31T20:05:30.029Z,3.90
2023-01-31T20:07:59.183Z,3.85
2023-01-31T20:10:31.249Z,4.30
2023-01-31T20:13:02.541Z,3.35
2023-01-31T20:15:35.194Z,3.33
2023-01-31T20:18:04.463Z,3.17
2023-01-31T20:20:33.853Z,4.25
2023-01-31T20:23:03.300Z,4.30
2023-01-31T20:25:33.906Z,4.22
2023-01-31T20:28:03.517Z,3.25
2023-01-31T20:30:35.303Z,3.65
2023-01-31T20:33:04.318Z,4.35
2023-01-31T20:35:34.100Z,4.18
2023-01-31T20:38:03.059Z,2.75
2023-01-31T20:40:32.313Z,2.10
2023-01-31T20:43:04.196Z,2.45
2023-01-31T20:45:36.061Z,3.53
2023-01-31T20:48:07.938Z,4.78
2023-01-31T20:50:37.868Z,4.65
2023-01-31T20:53:07.185Z,4.05
2023-01-31T20:55:39.168Z,8.20
2023-01-31T20:58:09.086Z,7.60
2023-01-31T21:05:40.117Z,3.58
2023-01-31T21:08:09.000Z,5.57
2023-01-31T21:10:38.158Z,5.35
2023-01-31T21:13:07.623Z,3.42
2023-01-31T21:15:36.830Z,3.23
2023-01-31T21:18:07.958Z,2.80
2023-01-31T21:20:37.741Z,3.47
2023-01-31T21:23:08.811Z,2.53
2023-01-31T21:26:01.283Z,3.53
2023-01-31T21:28:31.345Z,4.78
2023-01-31T21:31:01.217Z,5.93
2023-01-31T21:33:32.790Z,2.40
2023-01-31T21:36:07.543Z,5.35
2023-01-31T21:38:38.563Z,1.58
2023-01-31T21:41:26.883Z,3.58
2023-01-31T21:43:56.740Z,3.75
2023-01-31T21:46:26.950Z,4.07
2023-01-31T21:48:58.211Z,3.20
2023-01-31T21:51:27.878Z,2.85
2023-01-31T21:53:57.463Z,4.47
2023-01-31T21:56:28.147Z,1.63
2023-01-31T21:58:58.666Z,2.28
2023-01-31T22:01:29.811Z,3.92
2023-01-31T22:04:01.195Z,4.15
2023-01-31T22:06:34.974Z,5.68
2023-01-31T22:09:05.567Z,5.13
2023-01-31T22:14:07.349Z,2.78
2023-01-31T22:16:36.927Z,5.28
2023-01-31T22:19:08.108Z,4.40
2023-01-31T22:21:38.612Z,3.47
2023-01-31T22:24:09.556Z,5.80
2023-01-31T22:26:40.806Z,4.55
2023-01-31T22:29:11.857Z,6.55
2023-01-31T22:31:41.026Z,9.80
2023-01-31T22:34:14.113Z,5.57
2023-01-31T22:36:43.333Z,4.47
2023-01-31T22:39:16.041Z,4.53
2023-01-31T22:41:45.644Z,4.10
2023-01-31T22:44:14.882Z,6.25
2023-01-31T22:46:43.864Z,8.27
2023-01-31T22:49:14.598Z,7.63
2023-01-31T22:54:14.568Z,5.18
2023-01-31T22:56:43.443Z,5.90
2023-01-31T22:59:12.735Z,5.68
2023-01-31T23:01:41.590Z,5.40
2023-01-31T23:04:13.567Z,5.57
2023-01-31T23:06:42.770Z,8.20
2023-01-31T23:09:11.869Z,6.97
2023-01-31T23:11:41.131Z,5.40
2023-01-31T23:14:10.238Z,4.25
2023-01-31T23:16:56.845Z,5.38
2023-01-31T23:19:27.403Z,3.50
2023-01-31T23:21:56.322Z,3.75
2023-01-31T23:24:25.554Z,4.45
2023-01-31T23:26:56.416Z,2.15
2023-01-31T23:29:25.709Z,4.28
2023-01-31T23:31:54.588Z,4.72
2023-01-31T23:34:23.922Z,3.65
2023-01-31T23:36:54.131Z,4.75
2023-01-31T23:39:23.348Z,5.05
2023-01-31T23:41:52.239Z,7.78
2023-01-31T23:44:21.487Z,4.93
2023-01-31T23:46:50.872Z,4.38
2023-01-31T23:49:20.005Z,4.82
2023-01-31T23:51:48.954Z,5.00
2023-01-31T23:54:19.523Z,3.30
2023-01-31T23:59:17.423Z,1.90
